Terminal Aerodrome Forecast
Issued by NWS St Louis, MO

Home | Current Version | Previous Version | Graphics & Text | Print | Product List | Glossary On
Versions: 1 2 3 4 5 6 7 8 9 10 11 12 13 14 15 16 17 18 19 20 21 22 23 24
000
FTUS43 KLSX 162100 AAA
TAFSTL
TAF AMD
KSTL 162104Z 1621/1724 VRB04KT P6SM SCT050
     FM170100 VRB03KT P6SM FEW050
     FM171000 VRB03KT 2SM BR BKN006
     FM171500 11006KT P6SM SCT030=

USA.gov is the U.S. government's official web portal to all federal, state and local government web resources and services.